Airfield :
LOGIN :

Register | Disclaimer

   EN    FR    IT 

 










Legend :    VFR   Marginal VFR   IFR   Intensive IFR   Very Intensive IFR
Visi :
Ceiling :
>= 8 km
>= 3000ft
5 to 8 km
1000 to 3000 ft
1500m to 5 km
500 to 1000 ft
800 to 1500m
200 to 500 ft
< 800m
< 200 ft
Symbols :   Thunderstorms  Fog  Heavy snow  Heavy precipitations  Wind > 20 kt
SIGMETs :     Misc.  Thunderstorms  Icing  Turbulence  Mountain Waves  Volcanic Ashes






- Airport Elevation : 1325 ft
- IATA code : EBU


LFMH - St-Etienne Boutheon

CURRENT METAR :
  • 220430Z AUTO 03003KT 5000 BR NSC M03/M04 Q1032 NOSIG

EXPIRED METARs :
  • 220400Z AUTO 25002KT 5000 BR NSC M02/M02 Q1033 NOSIG
  • 220330Z AUTO VRB02KT 6000 NSC M02/M03 Q1033 TEMPO 3000 BR
  • 220300Z AUTO 01001KT 6000 NSC M02/M03 Q1033 TEMPO 3000 BR
  • 220230Z AUTO 31002KT 5000 BR NSC M02/M03 Q1033 NOSIG
  • 220200Z AUTO 00000KT 6000 NSC M03/M03 Q1033

TAF TAF LFMH
Valid from the 22 at 03:00 until the 23 at 03:00 UTC


220200Z 2203/2303 VRB02KT CAVOK
PROB40
TEMPO 2203/2208 3000 BR
ATIS : +33 4 77 36 17 51



MET'MAP, your aeronautical weather chart ! - Copyright ORBIFLY December 2007 - Disclaimer

ORBIFLY MET'MAP TEAM :

Programming & Development : Alexandra Zaïnal
Concept & original design : Baudouin d'Aumeries
Assistance for programming : Marc-Olivier Méhu
Technical & hardware support : Manuel Goepfert

Contact : metmap@orbifly.com




SOURCES & CREDITS :

   NOAA